createdAt,value
2018-04-27T00:01:32.186Z,89.20
2018-04-27T00:03:59.769Z,89.00
2018-04-27T00:06:27.327Z,88.70
2018-04-27T00:08:54.883Z,90.00
2018-04-27T00:11:22.436Z,88.90
2018-04-27T00:13:49.988Z,88.00
2018-04-27T00:16:17.565Z,87.20
2018-04-27T00:18:45.112Z,87.00
2018-04-27T00:21:12.662Z,88.50
2018-04-27T00:23:40.229Z,91.00
2018-04-27T00:26:07.788Z,90.30
2018-04-27T00:28:35.377Z,90.70
2018-04-27T00:31:02.924Z,91.00
2018-04-27T00:33:30.480Z,90.90
2018-04-27T00:35:58.032Z,90.80
2018-04-27T00:38:25.578Z,90.30
2018-04-27T00:40:53.176Z,90.90
2018-04-27T00:43:20.772Z,91.20
2018-04-27T00:45:48.315Z,91.60
2018-04-27T00:48:15.908Z,92.70
2018-04-27T00:50:43.452Z,92.60
2018-04-27T00:53:15.514Z,92.70
2018-04-27T00:55:43.066Z,93.10
2018-04-27T00:58:10.616Z,93.00
2018-04-27T01:00:38.180Z,93.00
2018-04-27T01:03:05.735Z,93.20
2018-04-27T01:05:33.312Z,93.30
2018-04-27T01:08:00.861Z,93.30
2018-04-27T01:10:28.411Z,93.20
2018-04-27T01:12:56.105Z,93.30
2018-04-27T01:15:23.639Z,92.60
2018-04-27T01:17:51.307Z,92.00
2018-04-27T01:20:18.856Z,92.60
2018-04-27T01:22:46.410Z,92.80
2018-04-27T01:25:13.956Z,92.90
2018-04-27T01:27:41.504Z,93.20
2018-04-27T01:30:09.082Z,93.30
2018-04-27T01:32:36.632Z,93.50
2018-04-27T01:35:04.181Z,93.50
2018-04-27T01:37:31.728Z,93.60
2018-04-27T01:39:59.279Z,93.60
2018-04-27T01:42:26.856Z,93.90
2018-04-27T01:44:54.520Z,93.80
2018-04-27T01:47:22.068Z,93.80
2018-04-27T01:49:49.617Z,94.00
2018-04-27T01:52:17.168Z,93.90
2018-04-27T01:54:44.737Z,94.00
2018-04-27T01:57:13.051Z,94.00
2018-04-27T01:59:40.620Z,94.00
2018-04-27T02:02:08.169Z,93.90
2018-04-27T02:04:35.718Z,94.00
2018-04-27T02:07:03.265Z,94.10
2018-04-27T02:09:30.813Z,94.10
2018-04-27T02:11:58.395Z,94.00
2018-04-27T02:14:25.942Z,94.10
2018-04-27T02:16:53.592Z,94.10
2018-04-27T02:19:21.152Z,93.90
2018-04-27T02:21:48.699Z,93.80
2018-04-27T02:24:16.278Z,93.60
2018-04-27T02:26:43.835Z,93.80
2018-04-27T02:29:11.488Z,93.80
2018-04-27T02:31:39.049Z,93.90
2018-04-27T02:34:06.604Z,93.80
2018-04-27T02:36:34.189Z,93.80
2018-04-27T02:39:01.733Z,93.80
2018-04-27T02:41:29.293Z,93.60
2018-04-27T02:43:56.868Z,93.50
2018-04-27T02:46:24.440Z,93.70
2018-04-27T02:48:51.996Z,93.70
2018-04-27T02:51:19.567Z,93.70
2018-04-27T02:53:47.894Z,93.80
2018-04-27T02:56:15.444Z,93.80
2018-04-27T02:58:42.999Z,93.70
2018-04-27T03:01:10.548Z,93.80
2018-04-27T03:03:38.100Z,93.80
2018-04-27T03:06:05.669Z,93.80
2018-04-27T03:08:33.232Z,93.80
2018-04-27T03:11:00.784Z,93.80
2018-04-27T03:13:28.337Z,93.80
2018-04-27T03:15:55.901Z,93.80
2018-04-27T03:18:23.477Z,93.70
2018-04-27T03:20:51.029Z,93.80
2018-04-27T03:23:18.580Z,93.70
2018-04-27T03:25:46.136Z,93.70
2018-04-27T03:28:13.684Z,93.70
2018-04-27T03:30:41.261Z,93.60
2018-04-27T03:33:08.808Z,93.60
2018-04-27T03:35:36.348Z,93.70
2018-04-27T03:38:04.220Z,93.40
2018-04-27T03:40:31.764Z,93.50
2018-04-27T03:43:00.108Z,93.30
2018-04-27T03:45:27.678Z,93.30
2018-04-27T03:47:55.248Z,93.40
2018-04-27T03:50:22.800Z,93.60
2018-04-27T03:52:50.344Z,93.50
2018-04-27T03:55:17.914Z,93.90
2018-04-27T03:57:45.468Z,93.60
2018-04-27T04:00:24.791Z,93.70
2018-04-27T04:03:03.964Z,93.70
2018-04-27T04:05:31.537Z,93.50
2018-04-27T04:07:59.088Z,93.60
2018-04-27T04:10:26.635Z,93.60
2018-04-27T04:12:54.188Z,93.60
2018-04-27T04:15:23.691Z,93.70
2018-04-27T04:17:51.268Z,93.70
2018-04-27T04:20:18.818Z,93.50
2018-04-27T04:22:46.370Z,93.50
2018-04-27T04:25:13.927Z,93.50
2018-04-27T04:27:41.477Z,93.60
2018-04-27T04:30:09.052Z,93.30
2018-04-27T04:32:36.606Z,93.40
2018-04-27T04:35:04.166Z,93.30
2018-04-27T04:37:31.716Z,93.40
2018-04-27T04:39:59.264Z,93.30
2018-04-27T04:42:27.620Z,93.10
2018-04-27T04:44:55.170Z,93.10
2018-04-27T04:47:23.189Z,93.20
2018-04-27T04:49:50.738Z,93.20
2018-04-27T04:52:18.288Z,92.80
2018-04-27T04:54:45.891Z,92.80
2018-04-27T04:57:13.520Z,92.80
2018-04-27T04:59:41.073Z,92.50
2018-04-27T05:02:08.619Z,92.80
2018-04-27T05:04:36.936Z,92.30
2018-04-27T05:07:04.555Z,92.30
2018-04-27T05:09:32.104Z,92.40
2018-04-27T05:12:00.428Z,92.00
2018-04-27T05:14:27.980Z,92.00
2018-04-27T05:16:55.537Z,91.80
2018-04-27T05:19:23.112Z,91.50
2018-04-27T05:21:50.664Z,91.70
2018-04-27T05:24:18.276Z,92.00
2018-04-27T05:26:45.812Z,91.70
2018-04-27T05:29:13.363Z,91.70
2018-04-27T05:31:40.940Z,91.50
2018-04-27T05:34:08.500Z,91.10
2018-04-27T05:36:36.819Z,90.80
2018-04-27T05:39:04.382Z,90.80
2018-04-27T05:41:32.017Z,91.00
2018-04-27T05:43:59.593Z,90.20
2018-04-27T05:46:27.139Z,90.10
2018-04-27T05:48:54.723Z,89.90
2018-04-27T05:51:22.301Z,89.60
2018-04-27T05:53:49.847Z,89.20
2018-04-27T05:56:17.424Z,88.60
2018-04-27T05:58:44.974Z,88.00
2018-04-27T06:01:12.524Z,87.00
2018-04-27T06:03:51.976Z,86.30
2018-04-27T06:06:19.526Z,86.20
2018-04-27T06:08:47.100Z,84.60
2018-04-27T06:11:15.429Z,81.10
2018-04-27T06:13:42.980Z,81.00
2018-04-27T06:16:10.544Z,79.40
2018-04-27T06:18:38.109Z,79.20
2018-04-27T06:21:05.684Z,77.30
2018-04-27T06:23:33.241Z,77.60
2018-04-27T06:26:00.792Z,77.80
2018-04-27T06:28:28.350Z,77.30
2018-04-27T06:30:55.896Z,78.10
2018-04-27T06:33:23.468Z,77.70
2018-04-27T06:35:51.017Z,75.90
2018-04-27T06:38:18.597Z,73.00
2018-04-27T06:40:46.156Z,71.60
2018-04-27T06:43:13.709Z,68.20
2018-04-27T06:45:41.269Z,70.40
2018-04-27T06:48:08.826Z,70.20
2018-04-27T06:50:36.405Z,69.30
2018-04-27T06:53:03.992Z,69.00
2018-04-27T06:55:31.542Z,71.70
2018-04-27T06:57:59.092Z,71.00
2018-04-27T07:00:26.640Z,70.00
2018-04-27T07:02:54.987Z,70.40
2018-04-27T07:05:22.590Z,70.60
2018-04-27T07:07:50.137Z,69.90
2018-04-27T07:10:17.684Z,71.80
2018-04-27T07:12:45.237Z,70.80
2018-04-27T07:15:12.820Z,71.60
2018-04-27T07:17:40.372Z,72.00
2018-04-27T07:20:08.685Z,72.80
2018-04-27T07:22:36.232Z,72.70
2018-04-27T07:25:03.784Z,71.70
2018-04-27T07:27:31.376Z,71.80
2018-04-27T07:29:58.923Z,71.10
2018-04-27T07:32:26.476Z,72.50
2018-04-27T07:34:54.020Z,70.60
2018-04-27T07:37:21.564Z,71.30
2018-04-27T07:39:49.276Z,71.00
2018-04-27T07:42:16.826Z,71.20
2018-04-27T07:44:44.383Z,71.10
2018-04-27T07:47:11.933Z,70.50
2018-04-27T07:49:39.488Z,71.30
2018-04-27T07:52:07.073Z,71.20
2018-04-27T07:54:34.624Z,72.00
2018-04-27T07:57:02.173Z,72.60
2018-04-27T07:59:29.716Z,70.40
2018-04-27T08:01:57.260Z,71.60
2018-04-27T08:04:24.843Z,72.10
2018-04-27T08:06:52.387Z,71.80
2018-04-27T08:09:19.940Z,71.30
2018-04-27T08:11:47.488Z,71.70
2018-04-27T08:14:15.039Z,71.60
2018-04-27T08:16:42.620Z,70.20
2018-04-27T08:19:10.360Z,70.20
2018-04-27T08:21:37.907Z,70.30
2018-04-27T08:24:06.224Z,68.20
2018-04-27T08:26:33.786Z,68.00
2018-04-27T08:29:02.324Z,67.00
2018-04-27T08:31:29.884Z,67.10
2018-04-27T08:33:57.446Z,67.00
2018-04-27T08:36:24.996Z,65.90
2018-04-27T08:38:52.556Z,66.60
2018-04-27T08:41:20.125Z,68.70
2018-04-27T08:43:47.678Z,69.70
2018-04-27T08:46:15.241Z,71.10
2018-04-27T08:48:42.815Z,70.70
2018-04-27T08:51:10.373Z,68.00
2018-04-27T08:53:37.920Z,65.80
2018-04-27T08:56:05.501Z,63.70
2018-04-27T08:58:33.056Z,63.00
2018-04-27T09:01:00.608Z,61.80
2018-04-27T09:03:28.168Z,59.10
2018-04-27T09:05:55.722Z,59.10
2018-04-27T09:08:23.299Z,58.20
2018-04-27T09:10:50.847Z,57.60
2018-04-27T09:13:18.393Z,60.10
2018-04-27T09:15:46.144Z,59.10
2018-04-27T09:18:13.692Z,57.60
2018-04-27T09:20:41.244Z,57.50
2018-04-27T09:23:08.820Z,59.40
2018-04-27T09:25:36.369Z,58.30
2018-04-27T09:28:03.934Z,59.40
2018-04-27T09:30:31.484Z,57.80
2018-04-27T09:32:59.039Z,55.20
2018-04-27T09:35:26.604Z,57.60
2018-04-27T09:37:54.155Z,56.60
2018-04-27T09:40:21.716Z,56.10
2018-04-27T09:42:49.277Z,57.50
2018-04-27T09:45:16.824Z,56.10
2018-04-27T09:47:44.400Z,55.50
2018-04-27T09:50:11.948Z,56.00
2018-04-27T09:52:39.496Z,58.10
2018-04-27T09:55:07.076Z,59.10
2018-04-27T09:57:34.640Z,59.70
2018-04-27T10:00:02.228Z,61.10
2018-04-27T10:02:29.776Z,60.90
2018-04-27T10:04:57.324Z,61.70
2018-04-27T10:07:25.802Z,62.10
2018-04-27T10:09:53.352Z,62.20
2018-04-27T10:12:20.929Z,63.70
2018-04-27T10:14:48.480Z,62.90
2018-04-27T10:17:16.029Z,63.40
2018-04-27T10:19:43.589Z,61.30
2018-04-27T10:22:11.145Z,59.40
2018-04-27T10:24:38.719Z,58.30
2018-04-27T10:27:06.280Z,60.10
2018-04-27T10:29:33.831Z,59.40
2018-04-27T10:32:01.376Z,58.40
2018-04-27T10:34:28.931Z,59.40
2018-04-27T10:36:56.509Z,59.70
2018-04-27T10:39:24.084Z,60.00
2018-04-27T10:41:51.642Z,60.60
2018-04-27T10:44:19.188Z,60.80
2018-04-27T10:46:46.739Z,61.40
2018-04-27T10:49:14.316Z,61.80
2018-04-27T10:51:41.868Z,62.00
2018-04-27T10:54:09.424Z,62.80
2018-04-27T10:56:36.980Z,65.20
2018-04-27T10:59:04.548Z,70.00
2018-04-27T11:01:32.124Z,73.00
2018-04-27T11:03:59.689Z,74.70
2018-04-27T11:06:28.004Z,72.00
2018-04-27T11:08:55.553Z,72.00
2018-04-27T11:11:23.096Z,72.30
2018-04-27T11:13:50.767Z,69.50
2018-04-27T11:16:18.337Z,66.90
2018-04-27T11:18:45.900Z,63.80
2018-04-27T11:21:13.449Z,65.10
2018-04-27T11:23:41.000Z,63.00
2018-04-27T11:26:08.645Z,60.90
2018-04-27T11:28:36.222Z,59.30
2018-04-27T11:31:04.502Z,61.30
2018-04-27T11:33:32.061Z,61.20
2018-04-27T11:35:59.619Z,60.20
2018-04-27T11:38:27.208Z,60.10
2018-04-27T11:40:54.761Z,60.60
2018-04-27T11:43:22.314Z,58.80
2018-04-27T11:45:49.864Z,58.20
2018-04-27T11:48:17.412Z,57.90
2018-04-27T11:50:44.989Z,57.00
2018-04-27T11:53:12.617Z,56.80
2018-04-27T11:55:40.116Z,57.50
2018-04-27T11:58:07.688Z,58.10
2018-04-27T12:00:35.249Z,58.20
2018-04-27T12:03:03.601Z,57.70
2018-04-27T12:05:31.180Z,57.50
2018-04-27T12:07:58.743Z,58.30
2018-04-27T12:10:26.300Z,58.70
2018-04-27T12:12:53.852Z,58.90
2018-04-27T12:15:21.428Z,58.10
2018-04-27T12:17:48.976Z,58.50
2018-04-27T12:20:17.299Z,58.40
2018-04-27T12:22:44.853Z,58.40
2018-04-27T12:25:12.401Z,58.80
2018-04-27T12:27:39.973Z,59.00
2018-04-27T12:30:07.526Z,58.70
2018-04-27T12:32:35.085Z,58.40
2018-04-27T12:35:02.646Z,57.50
2018-04-27T12:37:30.200Z,58.50
2018-04-27T12:39:57.780Z,57.90
2018-04-27T12:42:25.377Z,58.10
2018-04-27T12:44:53.700Z,57.20
2018-04-27T12:47:21.257Z,57.10
2018-04-27T12:49:48.819Z,57.50
2018-04-27T12:52:16.425Z,58.00
2018-04-27T12:54:43.974Z,57.20
2018-04-27T12:57:11.532Z,57.10
2018-04-27T12:59:39.100Z,56.00
2018-04-27T13:02:07.425Z,56.10
2018-04-27T13:04:35.085Z,56.00
2018-04-27T13:07:02.640Z,56.10
2018-04-27T13:09:30.201Z,56.90
2018-04-27T13:11:57.758Z,55.80
2018-04-27T13:14:25.340Z,55.70
2018-04-27T13:16:52.924Z,55.90
2018-04-27T13:19:20.477Z,55.70
2018-04-27T13:21:48.029Z,56.10
2018-04-27T13:24:15.580Z,56.40
2018-04-27T13:26:43.129Z,56.60
2018-04-27T13:29:10.728Z,57.50
2018-04-27T13:31:38.337Z,58.10
2018-04-27T13:34:05.896Z,57.90
2018-04-27T13:36:33.450Z,59.50
2018-04-27T13:39:01.000Z,58.10
2018-04-27T13:41:28.572Z,58.00
2018-04-27T13:43:56.129Z,58.60
2018-04-27T13:46:23.689Z,59.50
2018-04-27T13:48:51.247Z,58.30
2018-04-27T13:51:18.800Z,58.40
2018-04-27T13:53:46.371Z,58.70
2018-04-27T13:56:13.924Z,59.10
2018-04-27T13:58:41.480Z,59.00
2018-04-27T14:01:09.045Z,59.30
2018-04-27T14:03:36.601Z,60.60
2018-04-27T14:06:04.167Z,59.60
2018-04-27T14:08:31.723Z,60.90
2018-04-27T14:10:59.281Z,59.60
2018-04-27T14:13:26.835Z,59.00
2018-04-27T14:15:54.400Z,56.80
2018-04-27T14:18:21.985Z,56.60
2018-04-27T14:20:49.536Z,58.70
2018-04-27T14:23:17.854Z,56.60
2018-04-27T14:25:45.404Z,56.50
2018-04-27T14:28:12.959Z,55.70
2018-04-27T14:30:40.536Z,56.30
2018-04-27T14:33:08.100Z,56.30
2018-04-27T14:35:35.681Z,57.30
2018-04-27T14:38:03.232Z,57.60
2018-04-27T14:40:30.788Z,58.00
2018-04-27T14:42:58.428Z,58.10
2018-04-27T14:45:26.716Z,58.20
2018-04-27T14:47:54.290Z,58.80
2018-04-27T14:50:21.849Z,58.60
2018-04-27T14:52:49.395Z,58.60
2018-04-27T14:55:16.967Z,58.70
2018-04-27T14:57:44.520Z,58.80
2018-04-27T15:00:12.072Z,59.20
2018-04-27T15:02:39.653Z,58.80
2018-04-27T15:05:07.989Z,57.30
2018-04-27T15:07:35.603Z,57.10
2018-04-27T15:10:03.172Z,58.30
2018-04-27T15:12:30.729Z,56.80
2018-04-27T15:14:58.292Z,56.20
2018-04-27T15:17:25.871Z,55.00
2018-04-27T15:19:53.448Z,55.70
2018-04-27T15:22:21.008Z,54.60
2018-04-27T15:24:49.341Z,55.50
2018-04-27T15:27:16.904Z,55.40
2018-04-27T15:29:44.456Z,56.10
2018-04-27T15:32:12.036Z,54.50
2018-04-27T15:34:39.592Z,54.70
2018-04-27T15:37:07.149Z,55.90
2018-04-27T15:39:34.724Z,56.20
2018-04-27T15:42:02.288Z,56.90
2018-04-27T15:44:29.844Z,57.60
2018-04-27T15:46:57.437Z,56.90
2018-04-27T15:49:24.991Z,56.90
2018-04-27T15:51:53.313Z,57.60
2018-04-27T15:54:20.869Z,57.50
2018-04-27T15:56:48.437Z,57.90
2018-04-27T15:59:15.998Z,57.70
2018-04-27T16:01:43.552Z,57.90
2018-04-27T16:04:11.121Z,58.50
2018-04-27T16:06:38.672Z,57.60
2018-04-27T16:09:06.269Z,57.50
2018-04-27T16:11:33.800Z,57.70
2018-04-27T16:14:01.376Z,57.90
2018-04-27T16:16:28.935Z,57.70
2018-04-27T16:18:59.005Z,57.70
2018-04-27T16:21:26.777Z,57.30
2018-04-27T16:23:54.340Z,58.20
2018-04-27T16:26:24.345Z,57.90
2018-04-27T16:28:51.903Z,58.30
2018-04-27T16:31:19.496Z,58.50
2018-04-27T16:33:47.064Z,58.40
2018-04-27T16:36:14.635Z,58.40
2018-04-27T16:38:42.995Z,58.30
2018-04-27T16:41:10.553Z,58.10
2018-04-27T16:43:38.133Z,58.40
2018-04-27T16:46:05.700Z,57.70
2018-04-27T16:48:34.021Z,57.40
2018-04-27T16:51:01.575Z,57.40
2018-04-27T16:53:29.127Z,57.40
2018-04-27T16:55:56.700Z,58.20
2018-04-27T16:58:24.257Z,58.10
2018-04-27T17:00:51.812Z,58.20
2018-04-27T17:03:20.144Z,58.70
2018-04-27T17:05:47.780Z,58.60
2018-04-27T17:08:16.138Z,59.00
2018-04-27T17:10:43.696Z,59.00
2018-04-27T17:13:11.260Z,59.10
2018-04-27T17:15:38.816Z,59.30
2018-04-27T17:18:06.388Z,59.10
2018-04-27T17:20:34.067Z,59.30
2018-04-27T17:23:02.390Z,59.20
2018-04-27T17:25:29.944Z,59.10
2018-04-27T17:27:57.520Z,59.00
2018-04-27T17:30:25.076Z,59.80
2018-04-27T17:32:52.652Z,59.30
2018-04-27T17:35:20.225Z,60.00
2018-04-27T17:37:47.788Z,59.80
2018-04-27T17:40:16.104Z,60.70
2018-04-27T17:42:43.656Z,60.70
2018-04-27T17:45:11.232Z,61.00
2018-04-27T17:47:38.814Z,61.00
2018-04-27T17:50:06.369Z,62.70
2018-04-27T17:52:33.920Z,63.00
2018-04-27T17:55:01.468Z,62.80
2018-04-27T17:57:29.046Z,63.20
2018-04-27T17:59:56.668Z,63.50
2018-04-27T18:02:24.181Z,64.00
2018-04-27T18:04:52.502Z,65.20
2018-04-27T18:07:20.062Z,65.20
2018-04-27T18:09:47.636Z,66.00
2018-04-27T18:12:15.283Z,67.10
2018-04-27T18:14:42.760Z,68.30
2018-04-27T18:17:10.320Z,68.90
2018-04-27T18:19:37.889Z,68.30
2018-04-27T18:22:05.491Z,68.60
2018-04-27T18:24:33.036Z,68.40
2018-04-27T18:27:00.588Z,67.00
2018-04-27T18:29:29.025Z,68.20
2018-04-27T18:31:56.579Z,71.40
2018-04-27T18:34:24.920Z,79.50
2018-04-27T18:36:52.464Z,79.50
2018-04-27T18:39:20.053Z,81.10
2018-04-27T18:41:47.592Z,81.70
2018-04-27T18:44:15.148Z,80.50
2018-04-27T18:46:42.720Z,82.70
2018-04-27T18:49:10.272Z,81.10
2018-04-27T18:51:37.824Z,81.40
2018-04-27T18:54:05.373Z,80.10
2018-04-27T18:56:33.809Z,80.10
2018-04-27T18:59:01.388Z,80.40
2018-04-27T19:01:28.940Z,79.90
2018-04-27T19:03:57.269Z,76.00
2018-04-27T19:06:25.625Z,76.30
2018-04-27T19:08:53.212Z,76.20
2018-04-27T19:11:20.786Z,72.10
2018-04-27T19:13:48.459Z,73.90
2018-04-27T19:16:16.016Z,76.80
2018-04-27T19:18:44.297Z,76.80
2018-04-27T19:21:11.840Z,76.10
2018-04-27T19:23:39.415Z,77.70
2018-04-27T19:26:10.436Z,77.20
2018-04-27T19:28:37.984Z,78.20
2018-04-27T19:31:05.540Z,79.70
2018-04-27T19:33:33.088Z,80.80
2018-04-27T19:36:00.664Z,82.40
2018-04-27T19:38:28.221Z,82.20
2018-04-27T19:40:55.769Z,82.50
2018-04-27T19:43:23.328Z,83.40
2018-04-27T19:45:50.877Z,83.40
2018-04-27T19:48:18.460Z,84.00
2018-04-27T19:50:46.004Z,84.00
2018-04-27T19:53:13.552Z,83.30
2018-04-27T19:55:41.102Z,84.40
2018-04-27T19:58:08.652Z,84.70
2018-04-27T20:00:37.007Z,85.20
2018-04-27T20:03:04.563Z,85.30
2018-04-27T20:05:33.616Z,85.30
2018-04-27T20:08:01.173Z,85.20
2018-04-27T20:10:32.605Z,85.60
2018-04-27T20:13:00.210Z,85.90
2018-04-27T20:15:36.411Z,86.30
2018-04-27T20:18:21.696Z,86.30
2018-04-27T20:20:49.211Z,86.10
2018-04-27T20:23:17.664Z,86.90
2018-04-27T20:25:45.212Z,87.00
2018-04-27T20:28:12.772Z,85.90
2018-04-27T20:30:40.708Z,86.40
2018-04-27T20:33:11.104Z,86.70
2018-04-27T20:35:38.660Z,88.10
2018-04-27T20:38:21.447Z,88.20
2018-04-27T20:40:50.196Z,87.90
2018-04-27T20:43:22.869Z,87.90
2018-04-27T20:45:50.875Z,88.40
2018-04-27T20:48:21.162Z,89.30
2018-04-27T20:54:01.688Z,89.90
2018-04-27T20:56:35.804Z,89.40
2018-04-27T20:59:03.406Z,89.20
2018-04-27T21:01:30.958Z,90.00
2018-04-27T21:03:58.512Z,88.90
2018-04-27T21:06:26.797Z,89.40
2018-04-27T21:08:54.377Z,89.20
2018-04-27T21:11:22.883Z,88.90
2018-04-27T21:13:50.432Z,88.60
2018-04-27T21:16:17.979Z,88.80
2018-04-27T21:18:45.528Z,90.00
2018-04-27T21:21:13.104Z,90.30
2018-04-27T21:23:40.656Z,90.20
2018-04-27T21:26:08.996Z,90.40
2018-04-27T21:28:36.548Z,90.50
2018-04-27T21:31:04.096Z,90.20
2018-04-27T21:33:32.622Z,89.80
2018-04-27T21:36:00.901Z,89.90
2018-04-27T21:38:38.397Z,88.20
2018-04-27T21:41:26.481Z,88.20
2018-04-27T21:44:02.805Z,86.60
2018-04-27T21:46:31.213Z,88.50
2018-04-27T21:48:58.764Z,89.80
2018-04-27T21:51:38.928Z,89.50
2018-04-27T21:54:09.324Z,88.70
2018-04-27T21:56:36.900Z,88.90
2018-04-27T21:59:04.449Z,90.40
2018-04-27T22:01:32.766Z,90.00
2018-04-27T22:04:07.992Z,90.00
2018-04-27T22:06:35.540Z,88.00
2018-04-27T22:09:06.692Z,89.70
2018-04-27T22:11:35.096Z,89.50
2018-04-27T22:14:02.656Z,89.40
2018-04-27T22:16:30.214Z,88.30
2018-04-27T22:18:58.016Z,90.10
2018-04-27T22:21:25.605Z,90.70
2018-04-27T22:24:09.111Z,90.60
2018-04-27T22:26:38.164Z,90.30
2018-04-27T22:29:05.712Z,90.30
2018-04-27T22:31:33.257Z,90.30
2018-04-27T22:34:01.753Z,90.10
2018-04-27T22:36:48.488Z,89.90
2018-04-27T22:42:15.537Z,90.00
2018-04-27T22:45:17.354Z,90.00
2018-04-27T22:47:54.660Z,89.80
2018-04-27T22:50:22.208Z,88.20
2018-04-27T22:52:50.640Z,89.90
2018-04-27T22:55:19.133Z,90.10
2018-04-27T22:57:55.795Z,89.40
2018-04-27T23:00:24.218Z,89.20
2018-04-27T23:02:51.772Z,90.40
2018-04-27T23:05:22.033Z,89.60
2018-04-27T23:07:49.579Z,90.00
2018-04-27T23:10:17.120Z,88.80
2018-04-27T23:13:07.096Z,88.40
2018-04-27T23:15:45.388Z,90.40
2018-04-27T23:18:15.855Z,91.00
2018-04-27T23:20:46.261Z,91.00
2018-04-27T23:23:13.808Z,91.00
2018-04-27T23:25:43.868Z,90.60
2018-04-27T23:28:11.421Z,89.80
2018-04-27T23:30:41.812Z,89.60
2018-04-27T23:33:09.361Z,88.80
2018-04-27T23:35:41.384Z,90.00
2018-04-27T23:38:09.702Z,90.10
2018-04-27T23:40:37.369Z,90.10
2018-04-27T23:43:07.840Z,88.20
2018-04-27T23:45:35.411Z,88.00
2018-04-27T23:48:03.728Z,88.20
2018-04-27T23:50:31.278Z,88.10
2018-04-27T23:52:58.824Z,90.50
2018-04-27T23:55:26.396Z,89.20
2018-04-27T23:57:53.951Z,90.20
